createdAt,value
2022-08-05T00:02:19.437Z,2.53
2022-08-05T00:07:59.034Z,2.80
2022-08-05T00:12:48.528Z,3.45
2022-08-05T00:17:59.102Z,2.50
2022-08-05T00:23:12.872Z,2.10
2022-08-05T00:28:21.145Z,2.00
2022-08-05T00:34:56.799Z,1.70
2022-08-05T00:38:55.218Z,1.70
2022-08-05T00:44:09.560Z,1.60
2022-08-05T00:49:14.019Z,1.52
2022-08-05T00:54:16.779Z,1.65
2022-08-05T00:59:19.239Z,1.58
2022-08-05T01:04:26.612Z,1.75
2022-08-05T01:09:35.591Z,1.80
2022-08-05T01:14:59.740Z,1.80
2022-08-05T01:22:15.441Z,1.90
2022-08-05T01:27:28.055Z,2.00
2022-08-05T01:32:39.141Z,1.70
2022-08-05T01:37:54.595Z,2.00
2022-08-05T01:42:59.154Z,1.67
2022-08-05T01:48:03.329Z,1.77
2022-08-05T01:53:16.037Z,1.90
2022-08-05T01:58:45.374Z,1.80
2022-08-05T02:03:57.121Z,1.92
2022-08-05T02:09:00.503Z,1.83
2022-08-05T02:14:16.995Z,1.70
2022-08-05T02:19:28.210Z,1.90
2022-08-05T02:24:39.350Z,2.17
2022-08-05T02:29:58.564Z,1.77
2022-08-05T02:35:14.536Z,1.80
2022-08-05T02:40:27.808Z,1.70
2022-08-05T02:45:52.366Z,1.50
2022-08-05T02:50:53.482Z,2.00
2022-08-05T02:56:02.110Z,2.05
2022-08-05T03:07:07.220Z,1.80
2022-08-05T03:12:51.754Z,2.15
2022-08-05T03:18:07.764Z,2.92
2022-08-05T03:23:15.271Z,2.58
2022-08-05T03:28:35.287Z,2.80
2022-08-05T03:33:53.147Z,2.80
2022-08-05T03:39:12.998Z,2.60
2022-08-05T03:44:37.249Z,3.13
2022-08-05T03:49:51.858Z,2.83
2022-08-05T03:56:06.286Z,2.60
2022-08-05T04:00:57.295Z,2.83
2022-08-05T04:06:13.427Z,2.90
2022-08-05T04:11:19.024Z,2.50
2022-08-05T04:16:32.556Z,2.97
2022-08-05T04:22:10.163Z,2.70
2022-08-05T04:27:09.787Z,2.90
2022-08-05T04:32:33.245Z,2.63
2022-08-05T04:38:02.710Z,2.90
2022-08-05T04:43:16.805Z,2.90
2022-08-05T04:48:27.706Z,2.83
2022-08-05T04:58:49.846Z,3.35
2022-08-05T05:04:03.705Z,3.25
2022-08-05T05:09:17.657Z,3.35
2022-08-05T05:14:31.942Z,3.53
2022-08-05T05:19:47.315Z,3.05
2022-08-05T05:25:01.310Z,2.33
2022-08-05T05:30:29.466Z,3.05
2022-08-05T05:35:42.567Z,3.45
2022-08-05T05:40:51.424Z,3.10
2022-08-05T05:46:13.668Z,3.42
2022-08-05T05:51:27.804Z,3.15
2022-08-05T05:56:44.308Z,3.30
2022-08-05T06:01:57.639Z,3.35
2022-08-05T06:07:01.591Z,3.15
2022-08-05T06:12:09.847Z,3.10
2022-08-05T06:17:22.215Z,2.85
2022-08-05T06:22:36.889Z,2.58
2022-08-05T06:28:10.719Z,2.63
2022-08-05T06:33:19.430Z,3.47
2022-08-05T06:38:35.593Z,3.55
2022-08-05T06:43:58.622Z,3.28
2022-08-05T06:49:16.141Z,2.97
2022-08-05T06:54:31.354Z,3.05
2022-08-05T06:59:38.776Z,2.80
2022-08-05T07:04:47.935Z,2.83
2022-08-05T07:09:58.196Z,2.10
2022-08-05T07:20:50.581Z,2.22
2022-08-05T07:26:03.160Z,2.10
2022-08-05T07:31:08.561Z,2.60
2022-08-05T07:36:25.945Z,2.53
2022-08-05T07:42:14.353Z,1.90
2022-08-05T07:47:15.519Z,2.00
2022-08-05T07:52:28.561Z,2.10
2022-08-05T07:57:58.937Z,2.00
2022-08-05T08:03:19.009Z,1.80
2022-08-05T08:08:30.188Z,1.90
2022-08-05T08:13:49.258Z,1.80
2022-08-05T08:19:02.877Z,1.85
2022-08-05T08:24:13.573Z,1.90
2022-08-05T08:30:04.231Z,2.10
2022-08-05T08:40:14.484Z,1.95
2022-08-05T08:45:44.995Z,1.70
2022-08-05T08:51:07.510Z,1.50
2022-08-05T08:56:37.049Z,1.75
2022-08-05T09:01:57.475Z,1.70
2022-08-05T09:07:19.703Z,1.55
2022-08-05T09:12:41.331Z,1.60
2022-08-05T09:17:52.946Z,1.50
2022-08-05T09:23:18.794Z,1.50
2022-08-05T09:28:33.373Z,1.60
2022-08-05T09:34:04.628Z,1.70
2022-08-05T09:39:22.176Z,1.73
2022-08-05T09:44:50.578Z,1.75
2022-08-05T09:55:58.101Z,1.50
2022-08-05T10:01:31.937Z,1.67
2022-08-05T10:06:37.206Z,1.60
2022-08-05T10:11:53.820Z,1.93
2022-08-05T10:17:37.840Z,1.98
2022-08-05T10:22:59.034Z,1.92
2022-08-05T10:28:12.926Z,1.73
2022-08-05T10:39:00.066Z,1.60
2022-08-05T10:44:15.279Z,2.15
2022-08-05T10:49:26.868Z,1.50
2022-08-05T10:55:02.638Z,1.90
2022-08-05T11:00:24.840Z,2.47
2022-08-05T11:05:37.640Z,1.92
2022-08-05T11:10:50.407Z,2.00
2022-08-05T11:16:33.706Z,1.95
2022-08-05T11:21:59.917Z,2.35
2022-08-05T11:27:37.069Z,1.90
2022-08-05T11:44:21.612Z,2.10
2022-08-05T11:49:51.363Z,2.33
2022-08-05T11:55:07.786Z,2.03
2022-08-05T12:00:32.714Z,2.30
2022-08-05T12:05:46.261Z,2.30
2022-08-05T12:10:55.066Z,2.10
2022-08-05T12:16:15.647Z,2.22
2022-08-05T12:21:50.095Z,2.45
2022-08-05T12:26:55.081Z,2.20
2022-08-05T12:32:04.410Z,2.03
2022-08-05T12:37:21.939Z,2.00
2022-08-05T12:42:39.098Z,2.65
2022-08-05T12:48:17.107Z,2.13
2022-08-05T12:53:18.611Z,2.05
2022-08-05T12:58:52.297Z,1.77
2022-08-05T13:04:02.096Z,1.60
2022-08-05T13:09:13.868Z,1.95
2022-08-05T13:14:36.347Z,1.80
2022-08-05T13:30:33.047Z,1.70
2022-08-05T13:35:54.716Z,1.80
2022-08-05T13:41:11.259Z,1.58
2022-08-05T13:46:35.796Z,1.80
2022-08-05T13:51:56.574Z,1.73
2022-08-05T13:57:17.288Z,1.90
2022-08-05T14:02:29.864Z,1.60
2022-08-05T14:08:00.645Z,1.65
2022-08-05T14:13:10.408Z,1.70
2022-08-05T14:18:38.370Z,1.50
2022-08-05T14:23:46.753Z,1.90
2022-08-05T14:28:52.357Z,1.70
2022-08-05T14:34:00.857Z,2.10
2022-08-05T14:39:11.061Z,1.97
2022-08-05T14:44:20.221Z,1.85
2022-08-05T14:49:58.546Z,1.63
2022-08-05T14:55:19.355Z,1.55
2022-08-05T15:00:29.340Z,1.60
2022-08-05T15:06:07.515Z,1.60
2022-08-05T15:11:04.568Z,1.42
2022-08-05T15:16:27.062Z,1.50
2022-08-05T15:21:46.044Z,1.40
2022-08-05T15:26:50.659Z,1.40
2022-08-05T15:32:02.309Z,1.50
2022-08-05T15:42:54.665Z,3.72
2022-08-05T15:53:05.540Z,3.33
2022-08-05T15:58:16.842Z,3.42
2022-08-05T16:08:31.799Z,3.95
2022-08-05T16:13:35.406Z,2.85
2022-08-05T16:18:52.457Z,2.80
2022-08-05T16:24:03.444Z,2.88
2022-08-05T16:29:08.439Z,3.60
2022-08-05T16:40:05.058Z,3.42
2022-08-05T16:46:05.101Z,3.40
2022-08-05T16:50:46.135Z,3.28
2022-08-05T16:56:01.335Z,3.10
2022-08-05T17:01:11.474Z,3.30
2022-08-05T17:11:46.056Z,3.13
2022-08-05T17:16:57.016Z,3.60
2022-08-05T17:22:27.360Z,3.70
2022-08-05T17:27:33.373Z,3.30
2022-08-05T17:32:36.618Z,3.90
2022-08-05T17:38:00.417Z,3.92
2022-08-05T17:43:18.024Z,3.53
2022-08-05T17:48:59.726Z,3.40
2022-08-05T17:54:10.238Z,3.47
2022-08-05T17:59:14.967Z,3.42
2022-08-05T18:04:30.980Z,3.17
2022-08-05T18:10:10.083Z,2.58
2022-08-05T18:15:27.176Z,2.60
2022-08-05T18:20:32.745Z,3.05
2022-08-05T18:25:39.192Z,3.30
2022-08-05T18:30:54.610Z,2.70
2022-08-05T18:41:55.217Z,2.37
2022-08-05T18:47:10.589Z,2.85
2022-08-05T18:52:36.307Z,2.42
2022-08-05T18:57:53.934Z,2.47
2022-08-05T19:03:53.256Z,2.80
2022-08-05T19:08:53.045Z,2.58
2022-08-05T19:14:01.062Z,2.55
2022-08-05T19:19:24.843Z,2.50
2022-08-05T19:24:34.579Z,2.65
2022-08-05T19:29:38.264Z,2.42
2022-08-05T19:34:54.693Z,2.42
2022-08-05T19:40:02.748Z,2.65
2022-08-05T19:45:20.640Z,2.30
2022-08-05T19:50:36.653Z,2.35
2022-08-05T19:56:15.738Z,2.47
2022-08-05T20:06:59.252Z,2.40
2022-08-05T20:12:06.274Z,3.42
2022-08-05T20:17:23.458Z,2.55
2022-08-05T20:22:29.473Z,2.70
2022-08-05T20:27:41.585Z,3.05
2022-08-05T20:32:58.855Z,2.70
2022-08-05T20:38:22.603Z,2.80
2022-08-05T20:43:58.789Z,2.88
2022-08-05T20:49:02.467Z,2.80
2022-08-05T20:54:14.169Z,2.90
2022-08-05T20:59:26.865Z,2.30
2022-08-05T21:04:36.660Z,2.42
2022-08-05T21:09:54.307Z,2.30
2022-08-05T21:15:03.626Z,2.60
2022-08-05T21:20:11.907Z,2.65
2022-08-05T21:25:19.551Z,3.42
2022-08-05T21:30:29.920Z,3.42
2022-08-05T21:35:43.709Z,3.03
2022-08-05T21:41:14.447Z,2.90
2022-08-05T21:46:34.775Z,2.80
2022-08-05T21:52:22.797Z,3.38
2022-08-05T21:57:31.349Z,3.55
2022-08-05T22:02:41.823Z,2.55
2022-08-05T22:07:59.428Z,3.20
2022-08-05T22:14:18.209Z,3.40
2022-08-05T22:18:35.498Z,2.75
2022-08-05T22:24:08.819Z,2.50
2022-08-05T22:29:30.735Z,3.00
2022-08-05T22:34:41.723Z,3.03
2022-08-05T22:39:50.487Z,2.22
2022-08-05T22:44:59.138Z,3.30
2022-08-05T22:50:19.961Z,2.53
2022-08-05T22:55:37.182Z,2.70
2022-08-05T23:01:01.057Z,3.08
2022-08-05T23:06:04.972Z,3.08
2022-08-05T23:11:14.540Z,2.70
2022-08-05T23:16:25.976Z,3.15
2022-08-05T23:21:42.810Z,3.17
2022-08-05T23:26:55.305Z,2.85
2022-08-05T23:32:15.994Z,2.13
2022-08-05T23:37:23.870Z,3.33
2022-08-05T23:42:32.299Z,2.45
2022-08-05T23:47:36.555Z,2.38
2022-08-05T23:52:55.159Z,2.70
2022-08-05T23:58:03.141Z,2.47
